createdAt,value
2023-01-03T00:01:20.385Z,19.64
2023-01-03T00:03:48.572Z,19.93
2023-01-03T00:06:23.390Z,19.87
2023-01-03T00:08:51.941Z,19.93
2023-01-03T00:11:44.082Z,19.92
2023-01-03T00:14:19.711Z,19.96
2023-01-03T00:16:51.575Z,19.75
2023-01-03T00:19:20.768Z,19.88
2023-01-03T00:21:48.731Z,19.83
2023-01-03T00:24:17.049Z,19.97
2023-01-03T00:26:45.113Z,19.98
2023-01-03T00:29:13.659Z,19.91
2023-01-03T00:31:42.195Z,19.94
2023-01-03T00:34:10.796Z,19.87
2023-01-03T00:36:39.204Z,19.96
2023-01-03T00:39:06.979Z,19.94
2023-01-03T00:41:35.233Z,19.73
2023-01-03T00:44:03.491Z,19.87
2023-01-03T00:46:31.594Z,19.47
2023-01-03T00:48:59.344Z,19.63
2023-01-03T00:51:29.673Z,19.84
2023-01-03T00:54:01.248Z,19.82
2023-01-03T00:56:35.023Z,19.56
2023-01-03T00:59:03.918Z,19.67
2023-01-03T01:01:53.464Z,19.81
2023-01-03T01:04:21.555Z,19.78
2023-01-03T01:07:01.218Z,19.58
2023-01-03T01:09:32.542Z,19.71
2023-01-03T01:12:00.628Z,19.78
2023-01-03T01:14:30.159Z,19.57
2023-01-03T01:17:01.581Z,19.70
2023-01-03T01:19:35.368Z,19.42
2023-01-03T01:22:03.336Z,19.75
2023-01-03T01:24:31.590Z,19.60
2023-01-03T01:27:00.461Z,19.56
2023-01-03T01:29:28.493Z,19.51
2023-01-03T01:31:56.301Z,19.73
2023-01-03T01:34:24.152Z,19.64
2023-01-03T01:36:51.959Z,19.68
2023-01-03T01:39:25.718Z,19.67
2023-01-03T01:42:24.016Z,19.70
2023-01-03T01:45:01.484Z,19.64
2023-01-03T01:47:51.484Z,19.71
2023-01-03T01:50:25.538Z,19.68
2023-01-03T01:53:05.555Z,19.69
2023-01-03T01:55:52.011Z,19.36
2023-01-03T01:58:22.837Z,19.17
2023-01-03T02:00:50.644Z,19.67
2023-01-03T02:03:18.415Z,19.68
2023-01-03T02:05:51.637Z,19.73
2023-01-03T02:08:19.965Z,19.72
2023-01-03T02:11:15.465Z,19.71
2023-01-03T02:13:52.740Z,19.64
2023-01-03T02:16:23.380Z,19.62
2023-01-03T02:19:09.377Z,19.61
2023-01-03T02:22:03.343Z,19.62
2023-01-03T02:24:53.364Z,19.44
2023-01-03T02:27:36.306Z,19.64
2023-01-03T02:30:47.611Z,19.65
2023-01-03T02:33:21.410Z,19.58
2023-01-03T02:36:00.673Z,19.65
2023-01-03T02:38:53.236Z,19.63
2023-01-03T02:41:32.368Z,19.60
2023-01-03T02:44:24.711Z,19.63
2023-01-03T02:46:59.253Z,19.36
2023-01-03T02:49:42.635Z,19.59
2023-01-03T02:52:18.379Z,19.11
2023-01-03T02:55:10.284Z,19.60
2023-01-03T02:57:43.936Z,19.46
2023-01-03T03:00:15.666Z,19.39
2023-01-03T03:02:52.296Z,19.51
2023-01-03T03:05:28.289Z,19.57
2023-01-03T03:07:56.107Z,18.98
2023-01-03T03:10:43.257Z,19.40
2023-01-03T03:13:21.545Z,19.52
2023-01-03T03:15:58.336Z,19.52
2023-01-03T03:18:56.759Z,19.18
2023-01-03T03:21:44.477Z,19.53
2023-01-03T03:24:39.612Z,19.51
2023-01-03T03:27:30.327Z,19.52
2023-01-03T03:30:00.976Z,19.46
2023-01-03T03:32:32.280Z,19.31
2023-01-03T03:35:04.241Z,19.38
2023-01-03T03:37:35.985Z,19.45
2023-01-03T03:40:31.399Z,19.28
2023-01-03T03:43:34.663Z,19.55
2023-01-03T03:46:12.859Z,19.42
2023-01-03T03:49:15.474Z,19.57
2023-01-03T03:51:47.308Z,19.38
2023-01-03T03:54:19.519Z,19.33
2023-01-03T03:56:55.308Z,19.41
2023-01-03T03:59:25.116Z,19.23
2023-01-03T04:01:55.485Z,19.60
2023-01-03T04:04:28.683Z,19.42
2023-01-03T04:06:56.437Z,19.62
2023-01-03T04:09:24.153Z,19.46
2023-01-03T04:11:52.046Z,19.61
2023-01-03T04:14:21.012Z,19.36
2023-01-03T04:16:48.982Z,19.42
2023-01-03T04:19:16.916Z,19.31
2023-01-03T04:21:44.839Z,19.34
2023-01-03T04:24:12.672Z,19.19
2023-01-03T04:26:40.312Z,19.59
2023-01-03T04:29:07.970Z,19.27
2023-01-03T04:31:35.687Z,19.49
2023-01-03T04:34:03.409Z,19.35
2023-01-03T04:36:31.289Z,19.65
2023-01-03T04:39:00.753Z,19.48
2023-01-03T04:41:28.527Z,19.44
2023-01-03T04:44:02.279Z,19.39
2023-01-03T04:46:37.036Z,19.54
2023-01-03T04:49:06.601Z,19.43
2023-01-03T04:51:35.341Z,19.46
2023-01-03T04:54:04.556Z,19.26
2023-01-03T04:56:35.710Z,19.37
2023-01-03T04:59:04.874Z,19.38
2023-01-03T05:01:32.761Z,19.41
2023-01-03T05:04:02.118Z,19.54
2023-01-03T05:06:30.256Z,19.28
2023-01-03T05:08:58.124Z,19.35
2023-01-03T05:11:25.966Z,19.36
2023-01-03T05:13:53.668Z,19.52
2023-01-03T05:16:21.548Z,19.51
2023-01-03T05:18:51.457Z,19.43
2023-01-03T05:21:44.374Z,19.52
2023-01-03T05:24:31.412Z,19.47
2023-01-03T05:27:01.728Z,18.99
2023-01-03T05:29:30.212Z,19.42
2023-01-03T05:31:58.080Z,19.34
2023-01-03T05:34:26.246Z,19.09
2023-01-03T05:36:54.051Z,19.39
2023-01-03T05:39:21.721Z,19.59
2023-01-03T05:42:01.369Z,19.33
2023-01-03T05:44:32.030Z,19.56
2023-01-03T05:47:01.409Z,19.39
2023-01-03T05:49:29.639Z,19.12
2023-01-03T05:51:57.697Z,19.36
2023-01-03T05:54:27.074Z,19.58
2023-01-03T05:56:55.061Z,19.23
2023-01-03T05:59:22.967Z,19.56
2023-01-03T06:01:51.155Z,19.54
2023-01-03T06:04:19.290Z,19.19
2023-01-03T06:06:48.373Z,19.28
2023-01-03T06:09:16.825Z,19.54
2023-01-03T06:11:44.654Z,19.31
2023-01-03T06:14:12.471Z,19.39
2023-01-03T06:16:58.917Z,19.60
2023-01-03T06:19:27.005Z,19.29
2023-01-03T06:21:54.761Z,19.41
2023-01-03T06:24:22.719Z,19.59
2023-01-03T06:26:50.499Z,19.57
2023-01-03T06:29:18.324Z,19.58
2023-01-03T06:31:46.147Z,19.51
2023-01-03T06:34:18.062Z,19.24
2023-01-03T06:36:45.801Z,19.47
2023-01-03T06:39:13.812Z,19.42
2023-01-03T06:41:41.712Z,19.49
2023-01-03T06:44:11.491Z,19.63
2023-01-03T06:46:57.692Z,19.59
2023-01-03T06:49:44.126Z,19.52
2023-01-03T06:52:34.594Z,19.43
2023-01-03T06:55:02.920Z,19.48
2023-01-03T06:57:30.639Z,19.67
2023-01-03T06:59:58.414Z,19.66
2023-01-03T07:02:26.460Z,19.21
2023-01-03T07:04:54.357Z,19.60
2023-01-03T07:07:22.343Z,19.47
2023-01-03T07:09:50.045Z,19.49
2023-01-03T07:12:38.729Z,19.55
2023-01-03T07:15:06.940Z,19.57
2023-01-03T07:17:34.633Z,19.30
2023-01-03T07:20:02.672Z,19.60
2023-01-03T07:22:31.188Z,19.44
2023-01-03T07:24:58.994Z,19.43
2023-01-03T07:27:26.838Z,19.69
2023-01-03T07:29:54.604Z,19.66
2023-01-03T07:32:22.551Z,19.41
2023-01-03T07:34:51.545Z,19.42
2023-01-03T07:37:19.246Z,19.67
2023-01-03T07:39:47.007Z,19.63
2023-01-03T07:42:33.404Z,19.57
2023-01-03T07:45:01.123Z,19.32
2023-01-03T07:47:28.962Z,19.58
2023-01-03T07:49:56.726Z,19.67
2023-01-03T07:52:24.446Z,19.07
2023-01-03T07:54:52.111Z,19.57
2023-01-03T07:57:20.215Z,19.54
2023-01-03T07:59:47.963Z,19.42
2023-01-03T08:02:19.760Z,19.44
2023-01-03T08:04:48.140Z,19.12
2023-01-03T08:07:16.294Z,19.48
2023-01-03T08:10:02.357Z,19.44
2023-01-03T08:12:48.497Z,19.49
2023-01-03T08:15:16.654Z,19.25
2023-01-03T08:17:44.432Z,19.38
2023-01-03T08:20:12.110Z,19.33
2023-01-03T08:22:39.823Z,19.55
2023-01-03T08:25:07.952Z,19.53
2023-01-03T08:27:35.794Z,19.61
2023-01-03T08:30:04.135Z,19.62
2023-01-03T08:32:33.811Z,19.59
2023-01-03T08:35:01.804Z,19.53
2023-01-03T08:37:29.497Z,19.43
2023-01-03T08:40:01.667Z,19.68
2023-01-03T08:42:29.966Z,19.35
2023-01-03T08:45:02.954Z,19.47
2023-01-03T08:47:31.760Z,19.61
2023-01-03T08:50:01.901Z,19.22
2023-01-03T08:52:34.860Z,19.49
2023-01-03T08:55:03.911Z,19.68
2023-01-03T08:57:31.938Z,19.57
2023-01-03T08:59:59.826Z,19.74
2023-01-03T09:02:27.721Z,19.54
2023-01-03T09:04:55.654Z,19.46
2023-01-03T09:07:23.552Z,19.24
2023-01-03T09:09:51.179Z,19.64
2023-01-03T09:12:18.981Z,19.68
2023-01-03T09:14:46.772Z,19.31
2023-01-03T09:17:14.696Z,19.41
2023-01-03T09:19:42.499Z,19.75
2023-01-03T09:22:10.296Z,19.46
2023-01-03T09:24:38.026Z,19.40
2023-01-03T09:27:05.722Z,19.66
2023-01-03T09:29:33.552Z,19.81
2023-01-03T09:32:03.766Z,19.87
2023-01-03T09:34:31.707Z,19.78
2023-01-03T09:36:59.585Z,19.73
2023-01-03T09:39:27.361Z,19.92
2023-01-03T09:42:13.559Z,19.79
2023-01-03T09:44:41.531Z,19.78
2023-01-03T09:47:18.684Z,19.61
2023-01-03T09:50:18.437Z,19.97
2023-01-03T09:52:53.179Z,19.61
2023-01-03T09:55:55.436Z,20.11
2023-01-03T09:58:41.694Z,20.14
2023-01-03T10:01:46.917Z,20.16
2023-01-03T10:04:26.899Z,20.16
2023-01-03T10:07:14.587Z,20.14
2023-01-03T10:09:42.220Z,20.06
2023-01-03T10:12:35.341Z,20.01
2023-01-03T10:15:24.727Z,19.86
2023-01-03T10:18:08.540Z,20.01
2023-01-03T10:20:53.907Z,20.03
2023-01-03T10:23:21.978Z,20.19
2023-01-03T10:25:49.726Z,20.21
2023-01-03T10:28:28.376Z,20.29
2023-01-03T10:31:07.612Z,20.48
2023-01-03T10:33:47.732Z,20.47
2023-01-03T10:36:20.939Z,20.28
2023-01-03T10:39:02.059Z,20.29
2023-01-03T10:41:51.849Z,20.37
2023-01-03T10:44:29.290Z,20.35
2023-01-03T10:47:00.491Z,20.33
2023-01-03T10:49:31.799Z,20.24
2023-01-03T10:52:16.886Z,20.34
2023-01-03T10:54:48.135Z,20.21
2023-01-03T10:57:44.426Z,20.25
2023-01-03T11:00:33.966Z,20.44
2023-01-03T11:03:22.676Z,20.45
2023-01-03T11:05:56.787Z,20.44
2023-01-03T11:08:40.721Z,20.30
2023-01-03T11:11:31.843Z,20.31
2023-01-03T11:14:28.186Z,20.56
2023-01-03T11:17:03.030Z,20.52
2023-01-03T11:19:33.395Z,20.55
2023-01-03T11:22:06.841Z,20.65
2023-01-03T11:24:46.708Z,20.73
2023-01-03T11:27:17.290Z,20.70
2023-01-03T11:30:06.622Z,20.67
2023-01-03T11:32:45.210Z,20.47
2023-01-03T11:35:31.541Z,20.78
2023-01-03T11:38:08.446Z,20.82
2023-01-03T11:40:57.526Z,20.82
2023-01-03T11:43:38.778Z,20.42
2023-01-03T11:46:34.402Z,20.60
2023-01-03T11:49:13.332Z,20.74
2023-01-03T11:52:22.867Z,20.78
2023-01-03T11:55:13.445Z,20.71
2023-01-03T11:58:07.645Z,20.73
2023-01-03T12:00:49.330Z,20.69
2023-01-03T12:03:29.394Z,20.62
2023-01-03T12:06:26.735Z,20.12
2023-01-03T12:08:56.592Z,20.56
2023-01-03T12:11:30.250Z,20.57
2023-01-03T12:14:27.313Z,20.55
2023-01-03T12:17:03.650Z,20.54
2023-01-03T12:19:43.762Z,20.48
2023-01-03T12:22:23.972Z,20.39
2023-01-03T12:25:07.793Z,20.50
2023-01-03T12:27:42.351Z,20.30
2023-01-03T12:30:31.963Z,20.50
2023-01-03T12:33:16.388Z,20.43
2023-01-03T12:35:49.940Z,20.42
2023-01-03T12:38:25.020Z,20.49
2023-01-03T12:41:25.972Z,20.46
2023-01-03T12:44:18.167Z,20.13
2023-01-03T12:46:50.896Z,20.45
2023-01-03T12:49:35.153Z,20.39
2023-01-03T12:52:02.835Z,20.28
2023-01-03T12:54:52.687Z,20.34
2023-01-03T12:57:39.109Z,20.33
2023-01-03T13:00:25.931Z,20.31
2023-01-03T13:03:26.350Z,20.32
2023-01-03T13:06:20.664Z,20.30
2023-01-03T13:09:01.715Z,20.18
2023-01-03T13:11:36.232Z,19.90
2023-01-03T13:14:16.130Z,20.13
2023-01-03T13:16:49.268Z,19.80
2023-01-03T13:19:20.320Z,20.33
2023-01-03T13:22:03.655Z,20.33
2023-01-03T13:24:52.500Z,20.30
2023-01-03T13:27:20.809Z,20.39
2023-01-03T13:29:51.610Z,20.44
2023-01-03T13:32:22.476Z,20.40
2023-01-03T13:34:59.807Z,20.43
2023-01-03T13:37:48.196Z,20.39
2023-01-03T13:40:22.214Z,20.42
2023-01-03T13:43:02.664Z,20.41
2023-01-03T13:45:30.467Z,20.54
2023-01-03T13:48:08.798Z,20.34
2023-01-03T13:50:38.227Z,20.42
2023-01-03T13:53:12.200Z,20.61
2023-01-03T13:55:59.719Z,20.63
2023-01-03T13:58:48.846Z,20.63
2023-01-03T14:01:42.265Z,20.66
2023-01-03T14:04:28.993Z,20.65
2023-01-03T14:07:06.001Z,20.64
2023-01-03T14:09:33.960Z,20.61
2023-01-03T14:12:26.870Z,20.59
2023-01-03T14:14:57.910Z,20.35
2023-01-03T14:17:36.606Z,20.56
2023-01-03T14:20:10.124Z,20.32
2023-01-03T14:22:48.603Z,20.44
2023-01-03T14:25:37.998Z,20.53
2023-01-03T14:28:33.073Z,20.50
2023-01-03T14:31:09.246Z,20.50
2023-01-03T14:33:44.148Z,20.49
2023-01-03T14:36:17.704Z,20.57
2023-01-03T14:38:51.220Z,20.63
2023-01-03T14:41:35.533Z,20.66
2023-01-03T14:44:14.683Z,20.66
2023-01-03T14:46:53.584Z,20.63
2023-01-03T14:49:41.761Z,20.58
2023-01-03T14:52:37.392Z,20.49
2023-01-03T14:55:17.598Z,20.29
2023-01-03T14:57:49.858Z,20.51
2023-01-03T15:00:32.910Z,20.20
2023-01-03T15:03:03.788Z,20.31
2023-01-03T15:05:38.669Z,20.42
2023-01-03T15:08:16.135Z,20.42
2023-01-03T15:10:55.830Z,20.27
2023-01-03T15:13:30.091Z,20.05
2023-01-03T15:16:00.759Z,20.27
2023-01-03T15:18:32.360Z,20.37
2023-01-03T15:21:02.147Z,20.27
2023-01-03T15:23:37.716Z,20.38
2023-01-03T15:26:07.331Z,19.84
2023-01-03T15:28:51.003Z,20.27
2023-01-03T15:31:30.966Z,20.35
2023-01-03T15:34:02.060Z,20.36
2023-01-03T15:36:32.565Z,20.22
2023-01-03T15:39:00.519Z,20.14
2023-01-03T15:42:00.148Z,19.67
2023-01-03T15:44:39.679Z,20.25
2023-01-03T15:47:08.830Z,20.36
2023-01-03T15:49:42.369Z,20.28
2023-01-03T15:52:14.710Z,20.38
2023-01-03T15:54:44.966Z,20.05
2023-01-03T15:57:21.221Z,20.37
2023-01-03T16:00:02.164Z,20.38
2023-01-03T16:02:32.867Z,20.32
2023-01-03T16:05:02.087Z,20.31
2023-01-03T16:07:29.979Z,20.42
2023-01-03T16:09:57.667Z,20.42
2023-01-03T16:12:36.589Z,20.42
2023-01-03T16:15:08.868Z,20.14
2023-01-03T16:17:42.978Z,20.03
2023-01-03T16:20:18.127Z,20.38
2023-01-03T16:23:00.375Z,20.09
2023-01-03T16:25:28.892Z,20.39
2023-01-03T16:27:56.772Z,20.18
2023-01-03T16:30:24.711Z,20.44
2023-01-03T16:32:52.576Z,20.20
2023-01-03T16:35:21.003Z,20.46
2023-01-03T16:37:48.733Z,20.14
2023-01-03T16:40:19.340Z,20.44
2023-01-03T16:42:48.264Z,20.30
2023-01-03T16:45:17.578Z,19.80
2023-01-03T16:47:53.459Z,20.27
2023-01-03T16:50:21.335Z,20.02
2023-01-03T16:52:53.642Z,19.95
2023-01-03T16:55:32.473Z,20.13
2023-01-03T16:58:00.637Z,20.21
2023-01-03T17:00:34.831Z,20.15
2023-01-03T17:03:03.053Z,20.12
2023-01-03T17:05:37.559Z,20.24
2023-01-03T17:08:20.635Z,20.13
2023-01-03T17:10:51.865Z,19.88
2023-01-03T17:13:30.188Z,20.00
2023-01-03T17:15:59.203Z,20.24
2023-01-03T17:18:30.532Z,20.20
2023-01-03T17:21:01.917Z,20.22
2023-01-03T17:23:32.601Z,20.20
2023-01-03T17:26:01.732Z,19.82
2023-01-03T17:28:30.198Z,20.20
2023-01-03T17:30:57.946Z,20.03
2023-01-03T17:33:31.939Z,20.16
2023-01-03T17:36:01.737Z,20.12
2023-01-03T17:38:32.150Z,19.97
2023-01-03T17:40:59.931Z,19.90
2023-01-03T17:43:28.496Z,19.82
2023-01-03T17:46:22.889Z,19.60
2023-01-03T17:49:11.523Z,19.99
2023-01-03T17:51:40.392Z,20.07
2023-01-03T17:54:09.953Z,20.04
2023-01-03T17:56:38.058Z,19.62
2023-01-03T17:59:05.909Z,19.95
2023-01-03T18:01:34.384Z,19.76
2023-01-03T18:04:02.382Z,19.94
2023-01-03T18:06:30.384Z,19.66
2023-01-03T18:08:59.807Z,19.72
2023-01-03T18:11:27.661Z,19.87
2023-01-03T18:13:55.602Z,19.98
2023-01-03T18:16:23.921Z,19.84
2023-01-03T18:18:53.036Z,20.09
2023-01-03T18:21:30.246Z,20.12
2023-01-03T18:24:01.465Z,19.70
2023-01-03T18:26:35.624Z,19.67
2023-01-03T18:29:04.873Z,20.00
2023-01-03T18:31:33.155Z,19.99
2023-01-03T18:34:04.827Z,19.65
2023-01-03T18:36:44.092Z,19.60
2023-01-03T18:39:19.947Z,19.65
2023-01-03T18:41:47.802Z,19.89
2023-01-03T18:44:24.136Z,19.81
2023-01-03T18:46:52.705Z,19.68
2023-01-03T18:49:20.546Z,19.70
2023-01-03T18:51:53.092Z,19.44
2023-01-03T18:54:21.081Z,19.38
2023-01-03T18:56:48.916Z,19.76
2023-01-03T18:59:21.691Z,19.84
2023-01-03T19:01:49.612Z,19.90
2023-01-03T19:04:17.672Z,19.87
2023-01-03T19:06:49.660Z,19.57
2023-01-03T19:09:25.581Z,19.77
2023-01-03T19:11:54.753Z,19.63
2023-01-03T19:14:23.996Z,19.62
2023-01-03T19:16:52.101Z,19.68
2023-01-03T19:19:22.205Z,19.78
2023-01-03T19:21:50.599Z,19.79
2023-01-03T19:24:38.426Z,19.73
2023-01-03T19:27:21.411Z,19.78
2023-01-03T19:29:53.953Z,19.74
2023-01-03T19:32:28.207Z,19.75
2023-01-03T19:34:56.349Z,19.77
2023-01-03T19:37:23.975Z,19.55
2023-01-03T19:39:51.693Z,19.67
2023-01-03T19:42:40.175Z,19.25
2023-01-03T19:45:17.701Z,19.71
2023-01-03T19:47:45.492Z,19.68
2023-01-03T19:50:25.335Z,19.66
2023-01-03T19:52:53.874Z,19.63
2023-01-03T19:55:33.496Z,19.56
2023-01-03T19:58:05.992Z,19.57
2023-01-03T20:00:33.868Z,19.06
2023-01-03T20:03:05.496Z,19.71
2023-01-03T20:05:35.684Z,19.76
2023-01-03T20:08:12.257Z,19.74
2023-01-03T20:10:43.272Z,19.55
2023-01-03T20:13:19.316Z,19.58
2023-01-03T20:15:48.928Z,19.66
2023-01-03T20:18:41.582Z,19.72
2023-01-03T20:21:22.585Z,19.68
2023-01-03T20:23:54.602Z,19.67
2023-01-03T20:26:25.663Z,19.68
2023-01-03T20:28:55.304Z,19.73
2023-01-03T20:31:23.728Z,19.19
2023-01-03T20:33:52.491Z,19.57
2023-01-03T20:36:26.000Z,19.75
2023-01-03T20:38:56.236Z,19.45
2023-01-03T20:41:36.568Z,19.71
2023-01-03T20:44:08.212Z,19.59
2023-01-03T20:46:36.369Z,19.34
2023-01-03T20:49:06.941Z,19.46
2023-01-03T20:51:35.176Z,19.58
2023-01-03T20:54:05.476Z,19.61
2023-01-03T20:56:33.523Z,19.72
2023-01-03T20:59:01.602Z,19.65
2023-01-03T21:01:29.621Z,19.78
2023-01-03T21:03:58.058Z,19.77
2023-01-03T21:06:29.664Z,19.78
2023-01-03T21:08:59.334Z,19.74
2023-01-03T21:11:32.531Z,19.77
2023-01-03T21:14:01.570Z,19.72
2023-01-03T21:16:44.282Z,19.70
2023-01-03T21:19:23.162Z,19.64
2023-01-03T21:21:53.850Z,19.63
2023-01-03T21:24:25.421Z,19.50
2023-01-03T21:26:53.219Z,19.38
2023-01-03T21:29:22.199Z,19.51
2023-01-03T21:31:50.095Z,19.74
2023-01-03T21:34:20.625Z,19.64
2023-01-03T21:36:48.980Z,19.74
2023-01-03T21:39:17.007Z,19.63
2023-01-03T21:42:03.787Z,19.40
2023-01-03T21:44:31.516Z,19.78
2023-01-03T21:46:59.394Z,19.59
2023-01-03T21:49:27.587Z,19.92
2023-01-03T21:51:55.592Z,19.95
2023-01-03T21:54:23.463Z,19.62
2023-01-03T21:56:51.386Z,19.66
2023-01-03T21:59:19.377Z,19.78
2023-01-03T22:02:06.643Z,19.74
2023-01-03T22:04:34.925Z,19.67
2023-01-03T22:07:02.753Z,19.59
2023-01-03T22:09:52.261Z,19.63
2023-01-03T22:12:22.483Z,19.69
2023-01-03T22:14:50.286Z,19.69
2023-01-03T22:17:18.136Z,19.48
2023-01-03T22:19:45.881Z,19.54
2023-01-03T22:22:13.938Z,19.42
2023-01-03T22:24:41.950Z,19.75
2023-01-03T22:27:09.740Z,19.63
2023-01-03T22:29:37.536Z,19.45
2023-01-03T22:32:05.760Z,19.62
2023-01-03T22:34:34.320Z,19.51
2023-01-03T22:37:02.194Z,19.69
2023-01-03T22:39:29.967Z,19.27
2023-01-03T22:41:57.667Z,19.42
2023-01-03T22:44:25.509Z,19.53
2023-01-03T22:46:53.278Z,19.45
2023-01-03T22:49:21.280Z,19.47
2023-01-03T22:51:48.966Z,19.40
2023-01-03T22:54:16.774Z,19.31
2023-01-03T22:56:44.752Z,19.16
2023-01-03T22:59:12.862Z,19.40
2023-01-03T23:01:44.220Z,19.49
2023-01-03T23:04:12.648Z,19.47
2023-01-03T23:06:47.486Z,19.44
2023-01-03T23:09:15.716Z,19.17
2023-01-03T23:12:01.968Z,19.39
2023-01-03T23:14:30.917Z,19.34
2023-01-03T23:17:18.927Z,19.22
2023-01-03T23:19:46.845Z,18.96
2023-01-03T23:22:14.872Z,19.14
2023-01-03T23:24:42.615Z,18.75
2023-01-03T23:27:10.475Z,19.09
2023-01-03T23:29:38.398Z,19.23
2023-01-03T23:32:06.460Z,19.12
2023-01-03T23:34:34.418Z,19.10
2023-01-03T23:37:02.248Z,19.05
2023-01-03T23:39:29.912Z,19.18
2023-01-03T23:41:57.728Z,19.16
2023-01-03T23:44:26.874Z,19.16
2023-01-03T23:46:54.662Z,18.84
2023-01-03T23:49:22.472Z,18.91
2023-01-03T23:51:50.247Z,18.89
2023-01-03T23:54:18.238Z,19.15
2023-01-03T23:56:46.124Z,18.69
2023-01-03T23:59:14.065Z,18.13
